sensor_id;sensor_type;location;lat;lon;timestamp;P1;durP1;ratioP1;P2;durP2;ratioP2
39128;SDS011;24864;49.940;19.770;2022-12-26T00:01:11;146.98;;;74.10;;
39128;SDS011;24864;49.940;19.770;2022-12-26T00:03:39;147.70;;;76.05;;
39128;SDS011;24864;49.940;19.770;2022-12-26T00:06:10;163.65;;;85.65;;
39128;SDS011;24864;49.940;19.770;2022-12-26T00:08:40;189.80;;;95.70;;
39128;SDS011;24864;49.940;19.770;2022-12-26T00:11:09;184.88;;;94.65;;
39128;SDS011;24864;49.940;19.770;2022-12-26T00:13:37;170.35;;;86.38;;
39128;SDS011;24864;49.940;19.770;2022-12-26T00:16:09;148.23;;;74.50;;
39128;SDS011;24864;49.940;19.770;2022-12-26T00:18:39;127.88;;;63.47;;
39128;SDS011;24864;49.940;19.770;2022-12-26T00:21:09;166.63;;;80.30;;
39128;SDS011;24864;49.940;19.770;2022-12-26T00:23:38;170.15;;;82.63;;
39128;SDS011;24864;49.940;19.770;2022-12-26T00:26:08;173.98;;;85.38;;
39128;SDS011;24864;49.940;19.770;2022-12-26T00:28:38;166.00;;;84.93;;
39128;SDS011;24864;49.940;19.770;2022-12-26T00:31:07;169.50;;;80.25;;
39128;SDS011;24864;49.940;19.770;2022-12-26T00:33:38;175.35;;;82.72;;
39128;SDS011;24864;49.940;19.770;2022-12-26T00:36:07;157.05;;;79.93;;
39128;SDS011;24864;49.940;19.770;2022-12-26T00:38:39;143.80;;;70.47;;
39128;SDS011;24864;49.940;19.770;2022-12-26T00:41:08;148.85;;;69.35;;
39128;SDS011;24864;49.940;19.770;2022-12-26T00:43:37;120.70;;;56.60;;
39128;SDS011;24864;49.940;19.770;2022-12-26T00:46:06;119.75;;;56.85;;
39128;SDS011;24864;49.940;19.770;2022-12-26T00:48:35;101.97;;;48.20;;
39128;SDS011;24864;49.940;19.770;2022-12-26T00:51:05;98.97;;;48.20;;
39128;SDS011;24864;49.940;19.770;2022-12-26T00:53:33;91.20;;;44.83;;
39128;SDS011;24864;49.940;19.770;2022-12-26T00:56:01;92.00;;;45.50;;
39128;SDS011;24864;49.940;19.770;2022-12-26T00:58:29;101.35;;;49.63;;
39128;SDS011;24864;49.940;19.770;2022-12-26T01:01:03;101.38;;;49.42;;
39128;SDS011;24864;49.940;19.770;2022-12-26T01:03:33;97.82;;;49.75;;
39128;SDS011;24864;49.940;19.770;2022-12-26T01:06:01;93.25;;;45.42;;
39128;SDS011;24864;49.940;19.770;2022-12-26T01:08:32;91.10;;;42.95;;
39128;SDS011;24864;49.940;19.770;2022-12-26T01:11:02;83.55;;;42.85;;
39128;SDS011;24864;49.940;19.770;2022-12-26T01:13:32;90.40;;;44.03;;
39128;SDS011;24864;49.940;19.770;2022-12-26T01:16:01;85.97;;;42.15;;
39128;SDS011;24864;49.940;19.770;2022-12-26T01:18:30;88.10;;;41.42;;
39128;SDS011;24864;49.940;19.770;2022-12-26T01:20:59;91.78;;;42.50;;
39128;SDS011;24864;49.940;19.770;2022-12-26T01:23:29;80.55;;;36.55;;
39128;SDS011;24864;49.940;19.770;2022-12-26T01:25:58;80.25;;;38.15;;
39128;SDS011;24864;49.940;19.770;2022-12-26T01:28:45;75.13;;;35.22;;
39128;SDS011;24864;49.940;19.770;2022-12-26T01:31:14;85.47;;;38.47;;
39128;SDS011;24864;49.940;19.770;2022-12-26T01:33:42;76.78;;;37.30;;
39128;SDS011;24864;49.940;19.770;2022-12-26T01:36:11;78.03;;;38.03;;
39128;SDS011;24864;49.940;19.770;2022-12-26T01:38:39;80.72;;;38.20;;
39128;SDS011;24864;49.940;19.770;2022-12-26T01:41:09;77.40;;;38.33;;
39128;SDS011;24864;49.940;19.770;2022-12-26T01:43:56;74.18;;;37.17;;
39128;SDS011;24864;49.940;19.770;2022-12-26T01:46:28;104.93;;;54.58;;
39128;SDS011;24864;49.940;19.770;2022-12-26T01:49:00;106.82;;;56.38;;
39128;SDS011;24864;49.940;19.770;2022-12-26T01:51:35;112.70;;;57.13;;
39128;SDS011;24864;49.940;19.770;2022-12-26T01:54:05;120.72;;;60.08;;
39128;SDS011;24864;49.940;19.770;2022-12-26T01:56:58;128.48;;;61.20;;
39128;SDS011;24864;49.940;19.770;2022-12-26T01:59:28;127.50;;;62.28;;
39128;SDS011;24864;49.940;19.770;2022-12-26T02:02:00;130.63;;;62.65;;
39128;SDS011;24864;49.940;19.770;2022-12-26T02:04:29;138.18;;;67.43;;
39128;SDS011;24864;49.940;19.770;2022-12-26T02:07:21;112.80;;;57.83;;
39128;SDS011;24864;49.940;19.770;2022-12-26T02:09:50;115.18;;;55.70;;
39128;SDS011;24864;49.940;19.770;2022-12-26T02:12:22;112.25;;;54.33;;
39128;SDS011;24864;49.940;19.770;2022-12-26T02:15:04;100.15;;;48.45;;
39128;SDS011;24864;49.940;19.770;2022-12-26T02:17:34;106.53;;;51.20;;
39128;SDS011;24864;49.940;19.770;2022-12-26T02:20:04;114.75;;;55.60;;
39128;SDS011;24864;49.940;19.770;2022-12-26T02:25:51;124.00;;;57.58;;
39128;SDS011;24864;49.940;19.770;2022-12-26T02:28:59;113.00;;;54.88;;
39128;SDS011;24864;49.940;19.770;2022-12-26T02:31:48;98.05;;;48.85;;
39128;SDS011;24864;49.940;19.770;2022-12-26T02:34:28;112.28;;;54.03;;
39128;SDS011;24864;49.940;19.770;2022-12-26T02:37:08;120.13;;;58.95;;
39128;SDS011;24864;49.940;19.770;2022-12-26T02:39:55;126.88;;;60.92;;
39128;SDS011;24864;49.940;19.770;2022-12-26T02:42:32;103.35;;;51.10;;
39128;SDS011;24864;49.940;19.770;2022-12-26T02:45:11;92.90;;;47.10;;
39128;SDS011;24864;49.940;19.770;2022-12-26T02:48:05;113.32;;;55.67;;
39128;SDS011;24864;49.940;19.770;2022-12-26T02:50:43;112.55;;;54.28;;
39128;SDS011;24864;49.940;19.770;2022-12-26T02:53:38;109.60;;;53.00;;
39128;SDS011;24864;49.940;19.770;2022-12-26T02:56:34;106.10;;;53.03;;
39128;SDS011;24864;49.940;19.770;2022-12-26T02:59:29;110.15;;;55.58;;
39128;SDS011;24864;49.940;19.770;2022-12-26T03:02:25;114.70;;;56.17;;
39128;SDS011;24864;49.940;19.770;2022-12-26T03:05:17;122.45;;;56.50;;
39128;SDS011;24864;49.940;19.770;2022-12-26T03:08:09;106.93;;;54.08;;
39128;SDS011;24864;49.940;19.770;2022-12-26T03:11:09;100.97;;;46.83;;
39128;SDS011;24864;49.940;19.770;2022-12-26T03:13:55;68.45;;;34.55;;
39128;SDS011;24864;49.940;19.770;2022-12-26T03:16:31;71.57;;;37.80;;
39128;SDS011;24864;49.940;19.770;2022-12-26T03:19:19;51.08;;;25.23;;
39128;SDS011;24864;49.940;19.770;2022-12-26T03:21:51;48.70;;;24.23;;
39128;SDS011;24864;49.940;19.770;2022-12-26T03:24:19;92.25;;;47.97;;
39128;SDS011;24864;49.940;19.770;2022-12-26T03:26:50;103.18;;;50.45;;
39128;SDS011;24864;49.940;19.770;2022-12-26T03:29:20;106.07;;;52.92;;
39128;SDS011;24864;49.940;19.770;2022-12-26T03:32:08;105.93;;;53.40;;
39128;SDS011;24864;49.940;19.770;2022-12-26T03:34:39;118.53;;;58.97;;
39128;SDS011;24864;49.940;19.770;2022-12-26T03:37:23;122.13;;;58.75;;
39128;SDS011;24864;49.940;19.770;2022-12-26T03:40:19;137.02;;;67.25;;
39128;SDS011;24864;49.940;19.770;2022-12-26T03:43:29;133.00;;;65.53;;
39128;SDS011;24864;49.940;19.770;2022-12-26T03:49:20;146.32;;;71.28;;
39128;SDS011;24864;49.940;19.770;2022-12-26T03:52:13;148.20;;;71.68;;
39128;SDS011;24864;49.940;19.770;2022-12-26T03:55:05;136.27;;;66.05;;
39128;SDS011;24864;49.940;19.770;2022-12-26T03:58:00;140.63;;;67.47;;
39128;SDS011;24864;49.940;19.770;2022-12-26T04:00:50;137.00;;;69.95;;
39128;SDS011;24864;49.940;19.770;2022-12-26T04:03:39;132.75;;;69.13;;
39128;SDS011;24864;49.940;19.770;2022-12-26T04:06:30;137.55;;;72.55;;
39128;SDS011;24864;49.940;19.770;2022-12-26T04:12:11;143.23;;;67.75;;
39128;SDS011;24864;49.940;19.770;2022-12-26T04:15:04;155.73;;;77.00;;
39128;SDS011;24864;49.940;19.770;2022-12-26T04:17:57;155.98;;;77.32;;
39128;SDS011;24864;49.940;19.770;2022-12-26T04:20:50;151.55;;;76.32;;
39128;SDS011;24864;49.940;19.770;2022-12-26T04:23:30;148.68;;;75.97;;
39128;SDS011;24864;49.940;19.770;2022-12-26T04:26:22;150.95;;;76.30;;
39128;SDS011;24864;49.940;19.770;2022-12-26T04:29:13;152.48;;;76.88;;
39128;SDS011;24864;49.940;19.770;2022-12-26T04:32:00;137.07;;;69.78;;
39128;SDS011;24864;49.940;19.770;2022-12-26T04:34:50;138.38;;;69.03;;
39128;SDS011;24864;49.940;19.770;2022-12-26T04:37:41;123.68;;;62.85;;
39128;SDS011;24864;49.940;19.770;2022-12-26T04:40:31;124.55;;;60.25;;
39128;SDS011;24864;49.940;19.770;2022-12-26T04:43:21;124.80;;;61.60;;
39128;SDS011;24864;49.940;19.770;2022-12-26T04:46:17;109.30;;;55.05;;
39128;SDS011;24864;49.940;19.770;2022-12-26T04:48:49;104.38;;;50.80;;
39128;SDS011;24864;49.940;19.770;2022-12-26T04:51:37;92.10;;;47.70;;
39128;SDS011;24864;49.940;19.770;2022-12-26T04:54:06;93.32;;;45.88;;
39128;SDS011;24864;49.940;19.770;2022-12-26T04:56:34;88.00;;;43.75;;
39128;SDS011;24864;49.940;19.770;2022-12-26T04:59:03;94.18;;;44.92;;
39128;SDS011;24864;49.940;19.770;2022-12-26T05:01:32;80.75;;;44.00;;
39128;SDS011;24864;49.940;19.770;2022-12-26T05:04:18;78.60;;;39.25;;
39128;SDS011;24864;49.940;19.770;2022-12-26T05:07:14;77.03;;;38.13;;
39128;SDS011;24864;49.940;19.770;2022-12-26T05:10:02;65.45;;;33.45;;
39128;SDS011;24864;49.940;19.770;2022-12-26T05:12:31;54.05;;;29.67;;
39128;SDS011;24864;49.940;19.770;2022-12-26T05:15:00;50.03;;;26.98;;
39128;SDS011;24864;49.940;19.770;2022-12-26T05:17:29;47.90;;;26.30;;
39128;SDS011;24864;49.940;19.770;2022-12-26T05:20:15;40.38;;;22.58;;
39128;SDS011;24864;49.940;19.770;2022-12-26T05:23:12;48.85;;;26.35;;
39128;SDS011;24864;49.940;19.770;2022-12-26T05:26:03;35.10;;;20.08;;
39128;SDS011;24864;49.940;19.770;2022-12-26T05:28:52;60.83;;;33.58;;
39128;SDS011;24864;49.940;19.770;2022-12-26T05:31:23;78.72;;;42.28;;
39128;SDS011;24864;49.940;19.770;2022-12-26T05:34:01;92.75;;;48.38;;
39128;SDS011;24864;49.940;19.770;2022-12-26T05:36:33;103.78;;;55.30;;
39128;SDS011;24864;49.940;19.770;2022-12-26T05:39:04;116.47;;;59.10;;
39128;SDS011;24864;49.940;19.770;2022-12-26T05:41:34;112.05;;;59.13;;
39128;SDS011;24864;49.940;19.770;2022-12-26T05:44:02;113.93;;;56.70;;
39128;SDS011;24864;49.940;19.770;2022-12-26T05:46:31;115.18;;;57.65;;
39128;SDS011;24864;49.940;19.770;2022-12-26T05:48:59;104.80;;;53.15;;
39128;SDS011;24864;49.940;19.770;2022-12-26T05:51:30;116.93;;;59.58;;
39128;SDS011;24864;49.940;19.770;2022-12-26T05:53:58;109.78;;;53.15;;
39128;SDS011;24864;49.940;19.770;2022-12-26T05:56:27;97.20;;;45.35;;
39128;SDS011;24864;49.940;19.770;2022-12-26T05:58:55;79.07;;;38.45;;
39128;SDS011;24864;49.940;19.770;2022-12-26T06:01:25;76.72;;;40.13;;
39128;SDS011;24864;49.940;19.770;2022-12-26T06:03:55;61.47;;;33.63;;
39128;SDS011;24864;49.940;19.770;2022-12-26T06:06:26;46.28;;;25.67;;
39128;SDS011;24864;49.940;19.770;2022-12-26T06:08:55;42.80;;;21.77;;
39128;SDS011;24864;49.940;19.770;2022-12-26T06:11:24;37.53;;;20.65;;
39128;SDS011;24864;49.940;19.770;2022-12-26T06:13:53;94.78;;;50.25;;
39128;SDS011;24864;49.940;19.770;2022-12-26T06:16:22;96.70;;;53.40;;
39128;SDS011;24864;49.940;19.770;2022-12-26T06:18:50;111.47;;;59.10;;
39128;SDS011;24864;49.940;19.770;2022-12-26T06:21:19;116.15;;;62.58;;
39128;SDS011;24864;49.940;19.770;2022-12-26T06:23:49;116.63;;;61.88;;
39128;SDS011;24864;49.940;19.770;2022-12-26T06:26:17;114.82;;;59.80;;
39128;SDS011;24864;49.940;19.770;2022-12-26T06:28:45;99.40;;;51.25;;
39128;SDS011;24864;49.940;19.770;2022-12-26T06:31:15;84.07;;;42.92;;
39128;SDS011;24864;49.940;19.770;2022-12-26T06:33:46;75.65;;;41.40;;
39128;SDS011;24864;49.940;19.770;2022-12-26T06:36:16;100.30;;;55.92;;
39128;SDS011;24864;49.940;19.770;2022-12-26T06:38:46;69.03;;;35.15;;
39128;SDS011;24864;49.940;19.770;2022-12-26T06:41:17;71.05;;;37.65;;
39128;SDS011;24864;49.940;19.770;2022-12-26T06:43:47;62.40;;;35.30;;
39128;SDS011;24864;49.940;19.770;2022-12-26T06:46:16;65.57;;;35.50;;
39128;SDS011;24864;49.940;19.770;2022-12-26T06:48:47;60.45;;;34.55;;
39128;SDS011;24864;49.940;19.770;2022-12-26T06:51:15;58.17;;;33.45;;
39128;SDS011;24864;49.940;19.770;2022-12-26T06:53:45;52.92;;;31.65;;
39128;SDS011;24864;49.940;19.770;2022-12-26T06:56:16;53.75;;;29.25;;
39128;SDS011;24864;49.940;19.770;2022-12-26T06:58:46;59.63;;;29.95;;
39128;SDS011;24864;49.940;19.770;2022-12-26T07:01:15;65.88;;;35.13;;
39128;SDS011;24864;49.940;19.770;2022-12-26T07:03:44;55.75;;;32.03;;
39128;SDS011;24864;49.940;19.770;2022-12-26T07:06:20;54.75;;;30.00;;
39128;SDS011;24864;49.940;19.770;2022-12-26T07:08:50;54.90;;;30.05;;
39128;SDS011;24864;49.940;19.770;2022-12-26T07:11:21;76.95;;;41.28;;
39128;SDS011;24864;49.940;19.770;2022-12-26T07:13:50;60.05;;;36.00;;
39128;SDS011;24864;49.940;19.770;2022-12-26T07:16:20;65.50;;;36.08;;
39128;SDS011;24864;49.940;19.770;2022-12-26T07:18:50;58.67;;;35.42;;
39128;SDS011;24864;49.940;19.770;2022-12-26T07:21:19;59.63;;;35.92;;
39128;SDS011;24864;49.940;19.770;2022-12-26T07:23:48;67.03;;;37.60;;
39128;SDS011;24864;49.940;19.770;2022-12-26T07:26:17;83.05;;;48.05;;
39128;SDS011;24864;49.940;19.770;2022-12-26T07:28:47;115.40;;;62.22;;
39128;SDS011;24864;49.940;19.770;2022-12-26T07:31:15;66.70;;;38.33;;
39128;SDS011;24864;49.940;19.770;2022-12-26T07:33:45;55.35;;;32.65;;
39128;SDS011;24864;49.940;19.770;2022-12-26T07:36:15;52.92;;;30.67;;
39128;SDS011;24864;49.940;19.770;2022-12-26T07:38:43;43.05;;;24.80;;
39128;SDS011;24864;49.940;19.770;2022-12-26T07:41:12;16.33;;;11.65;;
39128;SDS011;24864;49.940;19.770;2022-12-26T07:43:59;18.58;;;11.77;;
39128;SDS011;24864;49.940;19.770;2022-12-26T07:46:28;14.43;;;9.73;;
39128;SDS011;24864;49.940;19.770;2022-12-26T07:48:56;12.75;;;8.88;;
39128;SDS011;24864;49.940;19.770;2022-12-26T07:51:25;11.77;;;8.02;;
39128;SDS011;24864;49.940;19.770;2022-12-26T07:53:53;10.35;;;7.15;;
39128;SDS011;24864;49.940;19.770;2022-12-26T07:56:22;7.32;;;6.13;;
39128;SDS011;24864;49.940;19.770;2022-12-26T07:58:50;11.15;;;7.22;;
39128;SDS011;24864;49.940;19.770;2022-12-26T08:01:20;20.63;;;18.83;;
39128;SDS011;24864;49.940;19.770;2022-12-26T08:03:49;8.13;;;6.85;;
39128;SDS011;24864;49.940;19.770;2022-12-26T08:06:18;7.80;;;6.10;;
39128;SDS011;24864;49.940;19.770;2022-12-26T08:08:46;9.55;;;8.65;;
39128;SDS011;24864;49.940;19.770;2022-12-26T08:11:17;9.05;;;7.65;;
39128;SDS011;24864;49.940;19.770;2022-12-26T08:13:49;43.23;;;25.37;;
39128;SDS011;24864;49.940;19.770;2022-12-26T08:16:17;53.97;;;30.88;;
39128;SDS011;24864;49.940;19.770;2022-12-26T08:18:47;61.88;;;35.60;;
39128;SDS011;24864;49.940;19.770;2022-12-26T08:21:16;71.90;;;40.60;;
39128;SDS011;24864;49.940;19.770;2022-12-26T08:23:44;89.82;;;52.22;;
39128;SDS011;24864;49.940;19.770;2022-12-26T08:26:14;100.07;;;56.00;;
39128;SDS011;24864;49.940;19.770;2022-12-26T08:28:48;110.10;;;63.10;;
39128;SDS011;24864;49.940;19.770;2022-12-26T08:31:18;102.35;;;57.65;;
39128;SDS011;24864;49.940;19.770;2022-12-26T08:33:48;107.32;;;59.60;;
39128;SDS011;24864;49.940;19.770;2022-12-26T08:36:17;99.75;;;54.33;;
39128;SDS011;24864;49.940;19.770;2022-12-26T08:38:45;118.55;;;67.35;;
39128;SDS011;24864;49.940;19.770;2022-12-26T08:41:13;104.50;;;56.22;;
39128;SDS011;24864;49.940;19.770;2022-12-26T08:43:43;104.93;;;57.70;;
39128;SDS011;24864;49.940;19.770;2022-12-26T08:46:35;102.55;;;56.65;;
39128;SDS011;24864;49.940;19.770;2022-12-26T08:49:05;109.72;;;58.90;;
39128;SDS011;24864;49.940;19.770;2022-12-26T08:51:33;108.55;;;62.10;;
39128;SDS011;24864;49.940;19.770;2022-12-26T08:54:02;107.22;;;59.85;;
39128;SDS011;24864;49.940;19.770;2022-12-26T08:56:31;102.15;;;50.83;;
39128;SDS011;24864;49.940;19.770;2022-12-26T08:58:59;103.07;;;53.13;;
39128;SDS011;24864;49.940;19.770;2022-12-26T09:01:27;98.68;;;50.78;;
39128;SDS011;24864;49.940;19.770;2022-12-26T09:03:58;95.95;;;52.13;;
39128;SDS011;24864;49.940;19.770;2022-12-26T09:06:30;92.63;;;49.15;;
39128;SDS011;24864;49.940;19.770;2022-12-26T09:08:59;90.07;;;49.70;;
39128;SDS011;24864;49.940;19.770;2022-12-26T09:11:28;85.32;;;46.53;;
39128;SDS011;24864;49.940;19.770;2022-12-26T09:13:58;85.95;;;47.40;;
39128;SDS011;24864;49.940;19.770;2022-12-26T09:16:28;95.43;;;50.45;;
39128;SDS011;24864;49.940;19.770;2022-12-26T09:19:04;84.88;;;48.10;;
39128;SDS011;24864;49.940;19.770;2022-12-26T09:21:34;77.30;;;45.17;;
39128;SDS011;24864;49.940;19.770;2022-12-26T09:24:03;91.88;;;49.67;;
39128;SDS011;24864;49.940;19.770;2022-12-26T09:26:33;80.18;;;44.38;;
39128;SDS011;24864;49.940;19.770;2022-12-26T09:29:01;71.18;;;42.00;;
39128;SDS011;24864;49.940;19.770;2022-12-26T09:31:30;85.80;;;47.22;;
39128;SDS011;24864;49.940;19.770;2022-12-26T09:34:00;70.15;;;40.17;;
39128;SDS011;24864;49.940;19.770;2022-12-26T09:36:30;79.47;;;42.70;;
39128;SDS011;24864;49.940;19.770;2022-12-26T09:39:00;80.65;;;45.92;;
39128;SDS011;24864;49.940;19.770;2022-12-26T09:41:35;76.25;;;43.08;;
39128;SDS011;24864;49.940;19.770;2022-12-26T09:44:21;85.03;;;44.50;;
39128;SDS011;24864;49.940;19.770;2022-12-26T09:46:58;77.90;;;41.53;;
39128;SDS011;24864;49.940;19.770;2022-12-26T09:49:43;80.40;;;44.50;;
39128;SDS011;24864;49.940;19.770;2022-12-26T09:52:18;81.53;;;44.80;;
39128;SDS011;24864;49.940;19.770;2022-12-26T09:54:51;77.55;;;43.03;;
39128;SDS011;24864;49.940;19.770;2022-12-26T09:57:25;72.45;;;41.92;;
39128;SDS011;24864;49.940;19.770;2022-12-26T10:00:01;74.80;;;42.85;;
39128;SDS011;24864;49.940;19.770;2022-12-26T10:02:32;79.03;;;45.53;;
39128;SDS011;24864;49.940;19.770;2022-12-26T10:05:01;62.83;;;38.70;;
39128;SDS011;24864;49.940;19.770;2022-12-26T10:07:30;79.82;;;46.10;;
39128;SDS011;24864;49.940;19.770;2022-12-26T10:10:09;72.00;;;44.28;;
39128;SDS011;24864;49.940;19.770;2022-12-26T10:12:41;80.00;;;46.03;;
39128;SDS011;24864;49.940;19.770;2022-12-26T10:15:26;64.82;;;38.88;;
39128;SDS011;24864;49.940;19.770;2022-12-26T10:18:04;29.42;;;21.45;;
39128;SDS011;24864;49.940;19.770;2022-12-26T10:20:43;30.52;;;18.40;;
39128;SDS011;24864;49.940;19.770;2022-12-26T10:26:11;19.90;;;13.27;;
39128;SDS011;24864;49.940;19.770;2022-12-26T10:28:45;29.00;;;17.30;;
39128;SDS011;24864;49.940;19.770;2022-12-26T10:31:18;73.70;;;41.40;;
39128;SDS011;24864;49.940;19.770;2022-12-26T10:33:52;30.05;;;17.65;;
39128;SDS011;24864;49.940;19.770;2022-12-26T10:36:28;74.60;;;43.63;;
39128;SDS011;24864;49.940;19.770;2022-12-26T10:39:00;59.63;;;35.53;;
39128;SDS011;24864;49.940;19.770;2022-12-26T10:41:34;27.92;;;17.52;;
39128;SDS011;24864;49.940;19.770;2022-12-26T10:44:08;27.88;;;16.90;;
39128;SDS011;24864;49.940;19.770;2022-12-26T10:46:51;18.88;;;11.90;;
39128;SDS011;24864;49.940;19.770;2022-12-26T10:49:27;21.20;;;9.90;;
39128;SDS011;24864;49.940;19.770;2022-12-26T10:51:55;12.30;;;8.63;;
39128;SDS011;24864;49.940;19.770;2022-12-26T10:54:26;11.50;;;8.00;;
39128;SDS011;24864;49.940;19.770;2022-12-26T10:56:57;12.73;;;7.93;;
39128;SDS011;24864;49.940;19.770;2022-12-26T10:59:29;9.02;;;7.13;;
39128;SDS011;24864;49.940;19.770;2022-12-26T11:02:13;8.88;;;7.00;;
39128;SDS011;24864;49.940;19.770;2022-12-26T11:05:02;12.45;;;7.60;;
39128;SDS011;24864;49.940;19.770;2022-12-26T11:07:53;12.95;;;6.22;;
39128;SDS011;24864;49.940;19.770;2022-12-26T11:10:25;9.55;;;5.72;;
39128;SDS011;24864;49.940;19.770;2022-12-26T11:12:58;9.43;;;5.85;;
39128;SDS011;24864;49.940;19.770;2022-12-26T11:15:29;9.90;;;6.38;;
39128;SDS011;24864;49.940;19.770;2022-12-26T11:18:08;7.78;;;6.15;;
39128;SDS011;24864;49.940;19.770;2022-12-26T11:20:47;15.68;;;10.15;;
39128;SDS011;24864;49.940;19.770;2022-12-26T11:23:20;9.38;;;8.10;;
39128;SDS011;24864;49.940;19.770;2022-12-26T11:25:50;12.65;;;7.63;;
39128;SDS011;24864;49.940;19.770;2022-12-26T11:28:29;15.48;;;14.05;;
39128;SDS011;24864;49.940;19.770;2022-12-26T11:31:00;8.45;;;6.95;;
39128;SDS011;24864;49.940;19.770;2022-12-26T11:33:32;12.95;;;7.13;;
39128;SDS011;24864;49.940;19.770;2022-12-26T11:36:08;12.13;;;10.98;;
39128;SDS011;24864;49.940;19.770;2022-12-26T11:38:46;13.65;;;11.07;;
39128;SDS011;24864;49.940;19.770;2022-12-26T11:41:18;8.25;;;6.03;;
39128;SDS011;24864;49.940;19.770;2022-12-26T11:44:11;9.00;;;5.47;;
39128;SDS011;24864;49.940;19.770;2022-12-26T11:46:46;7.82;;;5.95;;
39128;SDS011;24864;49.940;19.770;2022-12-26T11:49:20;9.75;;;6.68;;
39128;SDS011;24864;49.940;19.770;2022-12-26T11:51:52;9.13;;;6.20;;
39128;SDS011;24864;49.940;19.770;2022-12-26T11:54:26;11.65;;;7.07;;
39128;SDS011;24864;49.940;19.770;2022-12-26T11:57:09;11.02;;;7.25;;
39128;SDS011;24864;49.940;19.770;2022-12-26T11:59:41;9.40;;;6.53;;
39128;SDS011;24864;49.940;19.770;2022-12-26T12:02:16;8.75;;;6.30;;
39128;SDS011;24864;49.940;19.770;2022-12-26T12:04:52;7.15;;;6.00;;
39128;SDS011;24864;49.940;19.770;2022-12-26T12:10:00;10.43;;;6.45;;
39128;SDS011;24864;49.940;19.770;2022-12-26T12:12:34;9.68;;;6.70;;
39128;SDS011;24864;49.940;19.770;2022-12-26T12:15:12;8.10;;;6.13;;
39128;SDS011;24864;49.940;19.770;2022-12-26T12:17:47;8.45;;;6.70;;
39128;SDS011;24864;49.940;19.770;2022-12-26T12:20:25;9.73;;;6.75;;
39128;SDS011;24864;49.940;19.770;2022-12-26T12:26:03;11.15;;;6.38;;
39128;SDS011;24864;49.940;19.770;2022-12-26T12:28:41;10.95;;;6.60;;
39128;SDS011;24864;49.940;19.770;2022-12-26T12:31:29;10.68;;;6.38;;
39128;SDS011;24864;49.940;19.770;2022-12-26T12:34:11;12.70;;;7.38;;
39128;SDS011;24864;49.940;19.770;2022-12-26T12:36:51;7.27;;;6.17;;
39128;SDS011;24864;49.940;19.770;2022-12-26T12:39:31;10.20;;;6.05;;
39128;SDS011;24864;49.940;19.770;2022-12-26T12:42:16;9.00;;;5.80;;
39128;SDS011;24864;49.940;19.770;2022-12-26T12:44:58;9.00;;;6.32;;
39128;SDS011;24864;49.940;19.770;2022-12-26T12:47:47;9.88;;;6.10;;
39128;SDS011;24864;49.940;19.770;2022-12-26T12:50:29;10.65;;;6.80;;
39128;SDS011;24864;49.940;19.770;2022-12-26T12:53:05;7.72;;;5.72;;
39128;SDS011;24864;49.940;19.770;2022-12-26T12:58:37;9.20;;;6.10;;
39128;SDS011;24864;49.940;19.770;2022-12-26T13:01:14;7.30;;;5.63;;
39128;SDS011;24864;49.940;19.770;2022-12-26T13:03:49;9.82;;;5.70;;
39128;SDS011;24864;49.940;19.770;2022-12-26T13:06:24;9.85;;;6.22;;
39128;SDS011;24864;49.940;19.770;2022-12-26T13:08:56;8.75;;;5.95;;
39128;SDS011;24864;49.940;19.770;2022-12-26T13:11:29;9.05;;;6.45;;
39128;SDS011;24864;49.940;19.770;2022-12-26T13:14:02;10.07;;;5.97;;
39128;SDS011;24864;49.940;19.770;2022-12-26T13:16:41;10.90;;;5.60;;
39128;SDS011;24864;49.940;19.770;2022-12-26T13:19:16;8.20;;;5.40;;
39128;SDS011;24864;49.940;19.770;2022-12-26T13:21:47;9.93;;;6.25;;
39128;SDS011;24864;49.940;19.770;2022-12-26T13:24:19;7.85;;;5.65;;
39128;SDS011;24864;49.940;19.770;2022-12-26T13:26:57;11.15;;;6.85;;
39128;SDS011;24864;49.940;19.770;2022-12-26T13:29:36;12.98;;;7.90;;
39128;SDS011;24864;49.940;19.770;2022-12-26T13:32:13;10.02;;;6.88;;
39128;SDS011;24864;49.940;19.770;2022-12-26T13:34:45;9.25;;;6.88;;
39128;SDS011;24864;49.940;19.770;2022-12-26T13:40:21;8.10;;;5.78;;
39128;SDS011;24864;49.940;19.770;2022-12-26T13:42:53;10.85;;;7.57;;
39128;SDS011;24864;49.940;19.770;2022-12-26T13:51:48;13.35;;;7.50;;
39128;SDS011;24864;49.940;19.770;2022-12-26T13:54:18;11.02;;;7.65;;
39128;SDS011;24864;49.940;19.770;2022-12-26T13:59:50;9.80;;;6.60;;
39128;SDS011;24864;49.940;19.770;2022-12-26T14:02:55;8.73;;;6.40;;
39128;SDS011;24864;49.940;19.770;2022-12-26T14:05:54;10.23;;;7.03;;
39128;SDS011;24864;49.940;19.770;2022-12-26T14:08:39;9.55;;;6.38;;
39128;SDS011;24864;49.940;19.770;2022-12-26T14:11:29;10.27;;;7.50;;
39128;SDS011;24864;49.940;19.770;2022-12-26T14:14:11;9.25;;;7.35;;
39128;SDS011;24864;49.940;19.770;2022-12-26T14:16:53;11.90;;;7.18;;
39128;SDS011;24864;49.940;19.770;2022-12-26T14:19:35;12.70;;;7.88;;
39128;SDS011;24864;49.940;19.770;2022-12-26T14:22:11;8.40;;;6.30;;
39128;SDS011;24864;49.940;19.770;2022-12-26T14:24:56;10.40;;;7.10;;
39128;SDS011;24864;49.940;19.770;2022-12-26T14:27:32;10.73;;;7.45;;
39128;SDS011;24864;49.940;19.770;2022-12-26T14:30:16;8.57;;;6.80;;
39128;SDS011;24864;49.940;19.770;2022-12-26T14:32:52;8.85;;;6.40;;
39128;SDS011;24864;49.940;19.770;2022-12-26T14:35:30;14.98;;;8.73;;
39128;SDS011;24864;49.940;19.770;2022-12-26T14:38:08;12.15;;;7.00;;
39128;SDS011;24864;49.940;19.770;2022-12-26T14:40:58;11.95;;;8.48;;
39128;SDS011;24864;49.940;19.770;2022-12-26T14:43:31;11.25;;;6.85;;
39128;SDS011;24864;49.940;19.770;2022-12-26T14:46:01;8.02;;;5.97;;
39128;SDS011;24864;49.940;19.770;2022-12-26T14:48:52;10.73;;;7.28;;
39128;SDS011;24864;49.940;19.770;2022-12-26T14:51:28;10.63;;;7.85;;
39128;SDS011;24864;49.940;19.770;2022-12-26T15:03:29;18.92;;;15.05;;
39128;SDS011;24864;49.940;19.770;2022-12-26T15:06:25;12.20;;;8.65;;
39128;SDS011;24864;49.940;19.770;2022-12-26T15:12:35;13.60;;;9.57;;
39128;SDS011;24864;49.940;19.770;2022-12-26T15:15:26;10.93;;;8.05;;
39128;SDS011;24864;49.940;19.770;2022-12-26T15:18:14;15.15;;;9.27;;
39128;SDS011;24864;49.940;19.770;2022-12-26T15:21:15;10.90;;;8.65;;
39128;SDS011;24864;49.940;19.770;2022-12-26T15:27:29;12.23;;;7.78;;
39128;SDS011;24864;49.940;19.770;2022-12-26T15:30:15;11.57;;;7.80;;
39128;SDS011;24864;49.940;19.770;2022-12-26T15:32:50;9.90;;;7.10;;
39128;SDS011;24864;49.940;19.770;2022-12-26T15:35:27;20.73;;;12.75;;
39128;SDS011;24864;49.940;19.770;2022-12-26T15:38:16;18.13;;;12.25;;
39128;SDS011;24864;49.940;19.770;2022-12-26T15:43:32;14.13;;;9.57;;
39128;SDS011;24864;49.940;19.770;2022-12-26T15:46:14;11.98;;;7.55;;
39128;SDS011;24864;49.940;19.770;2022-12-26T15:48:55;13.85;;;7.63;;
39128;SDS011;24864;49.940;19.770;2022-12-26T15:51:36;18.02;;;15.95;;
39128;SDS011;24864;49.940;19.770;2022-12-26T15:54:32;14.52;;;12.18;;